Time,TemperatureF,DewpointF,PressureIn,WindDirection,WindDirectionDegrees,WindSpeedMPH,WindSpeedGustMPH,Humidity,HourlyPrecipIn,Conditions,Clouds,dailyrainin,SoftwareType,DateUTC
2013-09-02 00:02:00,70.3,68.5,29.35,WNW,292,0.0,0.0,94,0.00,,---,0.00,VWS V14.01,2013-09-02 04:02:00,
2013-09-02 00:03:00,70.3,68.5,29.35,WNW,292,0.0,0.0,94,0.00,,---,0.00,VWS V14.01,2013-09-02 04:03:00,
2013-09-02 00:04:00,70.3,68.5,29.35,WNW,292,0.0,0.0,94,0.00,,---,0.00,VWS V14.01,2013-09-02 04:04:00,
2013-09-02 00:06:00,70.2,68.4,29.35,WNW,292,0.0,0.0,94,0.00,,---,0.00,VWS V14.01,2013-09-02 04:06:00,
2013-09-02 00:07:00,70.2,68.4,29.35,WNW,292,0.0,0.0,94,0.00,,---,0.00,VWS V14.01,2013-09-02 04:07:00,
2013-09-02 00:12:00,70.2,68.4,29.35,SW,225,0.0,0.0,94,0.00,,---,0.00,VWS V14.01,2013-09-02 04:12:00,
2013-09-02 00:17:00,70.2,68.4,29.35,SW,225,0.0,0.0,94,0.00,,---,0.00,VWS V14.01,2013-09-02 04:17:00,
2013-09-02 00:23:00,70.2,68.4,29.35,SW,225,0.0,0.0,94,0.00,,---,0.00,VWS V14.01,2013-09-02 04:23:00,
2013-09-02 00:28:00,70.0,68.2,29.35,SW,225,0.0,0.0,94,0.00,,---,0.00,VWS V14.01,2013-09-02 04:28:00,
2013-09-02 00:34:00,70.0,68.2,29.35,SW,225,0.0,0.0,94,0.00,,---,0.00,VWS V14.01,2013-09-02 04:34:00,
2013-09-02 00:40:00,70.0,68.2,29.35,SW,225,0.0,0.0,94,0.00,,---,0.00,VWS V14.01,2013-09-02 04:40:00,
2013-09-02 00:45:00,70.0,68.2,29.35,SW,225,0.0,0.0,94,0.00,,---,0.00,VWS V14.01,2013-09-02 04:45:00,
2013-09-02 00:51:00,70.0,68.2,29.35,SW,225,0.0,0.0,94,0.00,,---,0.00,VWS V14.01,2013-09-02 04:51:00,
2013-09-02 00:57:00,70.0,68.2,29.35,SW,225,0.0,0.0,94,0.00,,---,0.00,VWS V14.01,2013-09-02 04:57:00,
2013-09-02 01:02:00,70.0,68.2,29.35,SW,225,0.0,0.0,94,0.00,,---,0.00,VWS V14.01,2013-09-02 05:02:00,
2013-09-02 01:08:00,70.0,68.2,29.35,SW,225,0.0,0.0,94,0.00,,---,0.00,VWS V14.01,2013-09-02 05:08:00,
2013-09-02 01:11:00,70.0,68.2,29.35,WSW,248,0.0,0.0,94,0.00,,---,0.00,VWS V14.01,2013-09-02 05:11:00,
2013-09-02 01:16:00,69.8,68.0,29.35,WSW,248,0.0,0.0,94,0.00,,---,0.00,VWS V14.01,2013-09-02 05:16:00,
2013-09-02 01:22:00,69.8,68.0,29.35,WSW,248,0.0,0.0,94,0.00,,---,0.00,VWS V14.01,2013-09-02 05:22:00,
2013-09-02 01:28:00,69.8,68.3,29.35,NW,315,0.0,0.0,95,0.00,,---,0.00,VWS V14.01,2013-09-02 05:28:00,
2013-09-02 01:33:00,69.8,68.3,29.35,WNW,292,0.0,0.0,95,0.00,,---,0.00,VWS V14.01,2013-09-02 05:33:00,
2013-09-02 01:38:00,69.8,68.3,29.35,SW,225,0.0,0.0,95,0.00,,---,0.00,VWS V14.01,2013-09-02 05:38:00,
2013-09-02 01:44:00,69.8,68.3,29.35,SW,225,0.0,0.0,95,0.00,,---,0.00,VWS V14.01,2013-09-02 05:44:00,
2013-09-02 01:51:00,69.8,68.3,29.35,SW,225,0.0,0.0,95,0.00,,---,0.00,VWS V14.01,2013-09-02 05:51:00,
2013-09-02 01:56:00,69.8,68.3,29.32,SW,225,0.0,0.0,95,0.00,,---,0.00,VWS V14.01,2013-09-02 05:56:00,
2013-09-02 02:01:00,69.8,68.3,29.32,SW,225,0.0,0.0,95,0.00,,---,0.00,VWS V14.01,2013-09-02 06:01:00,
2013-09-02 02:07:00,69.8,68.3,29.32,WSW,248,0.0,0.0,95,0.00,,---,0.00,VWS V14.01,2013-09-02 06:07:00,
2013-09-02 02:12:00,69.8,68.3,29.32,WSW,248,0.0,0.0,95,0.04,,---,0.04,VWS V14.01,2013-09-02 06:12:00,
2013-09-02 02:18:00,69.6,68.1,29.32,WSW,248,0.0,0.0,95,0.04,,---,0.04,VWS V14.01,2013-09-02 06:18:00,
2013-09-02 02:23:00,69.6,68.1,29.32,WSW,248,0.0,0.0,95,0.08,,---,0.08,VWS V14.01,2013-09-02 06:23:00,
2013-09-02 02:29:00,69.6,68.1,29.32,SW,225,0.0,0.0,95,0.21,,---,0.21,VWS V14.01,2013-09-02 06:29:00,
2013-09-02 02:35:00,69.6,68.4,29.32,WNW,292,0.0,0.0,96,0.29,,---,0.29,VWS V14.01,2013-09-02 06:35:00,
2013-09-02 02:40:00,69.4,68.2,29.32,WNW,292,0.0,0.0,96,0.37,,---,0.37,VWS V14.01,2013-09-02 06:40:00,
2013-09-02 02:46:00,69.4,68.2,29.32,WNW,292,0.0,0.0,96,0.37,,---,0.37,VWS V14.01,2013-09-02 06:46:00,
2013-09-02 02:51:00,69.4,68.2,29.32,South,180,0.0,0.0,96,0.42,,---,0.42,VWS V14.01,2013-09-02 06:51:00,
2013-09-02 02:57:00,69.4,68.2,29.32,ENE,68,0.0,0.0,96,0.42,,---,0.42,VWS V14.01,2013-09-02 06:57:00,
2013-09-02 03:04:00,69.4,68.2,29.32,NNW,338,0.0,0.0,96,0.46,,---,0.46,VWS V14.01,2013-09-02 07:04:00,
2013-09-02 03:09:00,69.3,68.1,29.32,West,270,0.0,0.0,96,0.54,,---,0.54,VWS V14.01,2013-09-02 07:09:00,
2013-09-02 03:15:00,69.1,67.9,29.32,SE,135,0.0,0.0,96,0.58,,---,0.62,VWS V14.01,2013-09-02 07:15:00,
2013-09-02 03:21:00,68.9,68.0,29.32,NE,45,0.0,0.0,97,0.63,,---,0.67,VWS V14.01,2013-09-02 07:21:00,
2013-09-02 03:26:00,68.9,68.0,29.32,WNW,292,0.0,0.0,97,0.57,,---,0.70,VWS V14.01,2013-09-02 07:26:00,
2013-09-02 03:32:00,68.9,68.0,29.32,ENE,68,0.0,0.0,97,0.62,,---,0.83,VWS V14.01,2013-09-02 07:32:00,
2013-09-02 03:38:00,68.7,67.8,29.32,ENE,68,0.0,0.0,97,0.75,,---,1.08,VWS V14.01,2013-09-02 07:38:00,
2013-09-02 03:44:00,68.7,67.8,29.32,SW,225,0.0,0.0,97,0.96,,---,1.33,VWS V14.01,2013-09-02 07:44:00,
2013-09-02 03:49:00,68.5,67.7,29.32,SW,225,0.0,0.0,97,1.04,,---,1.41,VWS V14.01,2013-09-02 07:49:00,
2013-09-02 03:55:00,68.5,67.7,29.32,NNE,22,0.0,0.0,97,1.12,,---,1.54,VWS V14.01,2013-09-02 07:55:00,
2013-09-02 04:00:00,68.5,67.7,29.32,South,180,0.0,2.9,97,1.24,,---,1.66,VWS V14.01,2013-09-02 08:00:00,
2013-09-02 04:06:00,68.5,67.7,29.32,SSE,158,0.0,0.0,97,1.41,,---,1.87,VWS V14.01,2013-09-02 08:06:00,
2013-09-02 04:11:00,68.5,68.0,29.32,SW,225,0.0,0.0,98,1.41,,---,1.95,VWS V14.01,2013-09-02 08:11:00,
2013-09-02 04:17:00,68.5,68.0,29.32,WNW,292,0.0,0.0,98,1.37,,---,1.99,VWS V14.01,2013-09-02 08:17:00,
2013-09-02 04:22:00,68.5,68.0,29.32,WNW,292,0.0,0.0,98,1.37,,---,2.04,VWS V14.01,2013-09-02 08:22:00,
2013-09-02 04:28:00,68.5,68.0,29.32,WNW,292,0.0,0.0,98,1.29,,---,2.04,VWS V14.01,2013-09-02 08:28:00,
2013-09-02 04:33:00,68.5,68.0,29.32,WNW,292,0.0,0.0,98,1.21,,---,2.04,VWS V14.01,2013-09-02 08:33:00,
2013-09-02 04:39:00,68.5,68.0,29.32,WNW,292,0.0,0.0,98,0.96,,---,2.04,VWS V14.01,2013-09-02 08:39:00,
2013-09-02 04:45:00,68.5,68.0,29.32,WNW,292,0.0,0.0,98,0.71,,---,2.04,VWS V14.01,2013-09-02 08:45:00,
2013-09-02 04:50:00,68.5,68.0,29.32,WNW,292,0.0,0.0,98,0.63,,---,2.04,VWS V14.01,2013-09-02 08:50:00,
2013-09-02 04:56:00,68.5,68.0,29.32,NW,315,0.0,0.0,98,0.54,,---,2.08,VWS V14.01,2013-09-02 08:56:00,
2013-09-02 05:01:00,68.5,68.0,29.32,NW,315,0.0,0.0,98,0.42,,---,2.08,VWS V14.01,2013-09-02 09:01:00,
2013-09-02 05:07:00,68.4,67.8,29.32,NW,315,0.0,0.0,98,0.21,,---,2.08,VWS V14.01,2013-09-02 09:07:00,
2013-09-02 05:12:00,68.4,67.8,29.32,NW,315,0.0,0.0,98,0.17,,---,2.12,VWS V14.01,2013-09-02 09:12:00,
2013-09-02 05:18:00,68.4,67.8,29.32,NW,315,0.0,0.0,98,0.13,,---,2.12,VWS V14.01,2013-09-02 09:18:00,
2013-09-02 05:24:00,68.4,67.8,29.32,NW,315,0.0,0.0,98,0.12,,---,2.16,VWS V14.01,2013-09-02 09:24:00,
2013-09-02 05:29:00,68.4,67.8,29.32,NW,315,0.0,0.0,98,0.12,,---,2.16,VWS V14.01,2013-09-02 09:29:00,
2013-09-02 05:35:00,68.4,67.8,29.32,NNW,338,0.0,0.0,98,0.16,,---,2.20,VWS V14.01,2013-09-02 09:35:00,
2013-09-02 05:40:00,68.4,67.8,29.32,NNW,338,0.0,0.0,98,0.16,,---,2.20,VWS V14.01,2013-09-02 09:40:00,
2013-09-02 05:45:00,68.4,67.8,29.32,NNW,338,0.0,0.0,98,0.16,,---,2.20,VWS V14.01,2013-09-02 09:45:00,
2013-09-02 05:51:00,68.4,67.8,29.32,NNW,338,0.0,0.0,98,0.16,,---,2.20,VWS V14.01,2013-09-02 09:51:00,
2013-09-02 05:56:00,68.4,67.8,29.32,NNW,338,0.0,0.0,98,0.20,,---,2.24,VWS V14.01,2013-09-02 09:56:00,
2013-09-02 06:01:00,68.4,67.8,29.32,NNW,338,0.0,0.0,98,0.25,,---,2.33,VWS V14.01,2013-09-02 10:01:00,
2013-09-02 06:06:00,68.4,67.8,29.32,NNW,338,0.0,0.0,98,0.33,,---,2.41,VWS V14.01,2013-09-02 10:06:00,
2013-09-02 06:11:00,68.4,67.8,29.32,NNW,338,0.0,0.0,98,0.29,,---,2.41,VWS V14.01,2013-09-02 10:11:00,
2013-09-02 06:16:00,68.4,67.8,29.32,NNW,338,0.0,0.0,98,0.33,,---,2.45,VWS V14.01,2013-09-02 10:16:00,
2013-09-02 06:21:00,68.4,67.8,29.32,NNW,338,0.0,0.0,98,0.33,,---,2.45,VWS V14.01,2013-09-02 10:21:00,
2013-09-02 06:26:00,68.4,67.8,29.32,NNW,338,0.0,0.0,98,0.29,,---,2.45,VWS V14.01,2013-09-02 10:26:00,
2013-09-02 06:33:00,68.2,67.6,29.32,NNW,338,0.0,0.0,98,0.33,,---,2.49,VWS V14.01,2013-09-02 10:33:00,
2013-09-02 06:39:00,68.2,67.6,29.32,NE,45,0.0,0.0,98,0.29,,---,2.49,VWS V14.01,2013-09-02 10:39:00,
2013-09-02 06:44:00,68.0,67.4,29.32,NE,45,0.0,0.0,98,0.29,,---,2.49,VWS V14.01,2013-09-02 10:44:00,
2013-09-02 06:50:00,68.0,67.4,29.32,NE,45,0.0,0.0,98,0.29,,---,2.49,VWS V14.01,2013-09-02 10:50:00,
2013-09-02 06:55:00,68.0,67.4,29.32,NE,45,0.0,0.0,98,0.33,,---,2.53,VWS V14.01,2013-09-02 10:55:00,
2013-09-02 07:00:00,67.8,67.2,29.32,NE,45,0.0,0.0,98,0.25,,---,2.53,VWS V14.01,2013-09-02 11:00:00,
2013-09-02 07:05:00,67.8,67.2,29.32,NE,45,0.0,0.0,98,0.20,,---,2.57,VWS V14.01,2013-09-02 11:05:00,
2013-09-02 07:11:00,67.8,67.2,29.32,NE,45,0.0,0.0,98,0.16,,---,2.57,VWS V14.01,2013-09-02 11:11:00,
2013-09-02 07:17:00,67.8,67.2,29.32,NE,45,0.0,0.0,98,0.16,,---,2.61,VWS V14.01,2013-09-02 11:17:00,
2013-09-02 07:23:00,67.6,67.1,29.32,NE,45,0.0,0.0,98,0.16,,---,2.61,VWS V14.01,2013-09-02 11:23:00,
2013-09-02 07:28:00,67.6,67.1,29.32,NE,45,0.0,0.0,98,0.16,,---,2.61,VWS V14.01,2013-09-02 11:28:00,
2013-09-02 07:33:00,67.6,67.1,29.32,NNE,22,0.0,0.0,98,0.17,,---,2.66,VWS V14.01,2013-09-02 11:33:00,
2013-09-02 07:39:00,67.6,67.1,29.32,NNE,22,0.0,0.0,98,0.17,,---,2.66,VWS V14.01,2013-09-02 11:39:00,
2013-09-02 07:44:00,67.5,66.9,29.32,NNE,22,0.0,1.3,98,0.17,,---,2.66,VWS V14.01,2013-09-02 11:44:00,
2013-09-02 07:49:00,67.5,66.9,29.32,NNE,22,0.0,0.0,98,0.21,,---,2.70,VWS V14.01,2013-09-02 11:49:00,
2013-09-02 07:54:00,67.3,66.7,29.29,NE,45,0.0,0.0,98,0.25,,---,2.78,VWS V14.01,2013-09-02 11:54:00,
2013-09-02 07:59:00,67.3,66.7,29.29,SSW,202,0.0,0.0,98,0.25,,---,2.78,VWS V14.01,2013-09-02 11:59:00,
2013-09-02 08:04:00,67.3,66.7,29.29,SW,225,0.0,0.0,98,0.29,,---,2.82,VWS V14.01,2013-09-02 12:04:00,
2013-09-02 08:09:00,67.1,66.5,29.32,SW,225,0.0,0.0,98,0.30,,---,2.87,VWS V14.01,2013-09-02 12:09:00,
2013-09-02 08:16:00,66.9,66.3,29.32,NW,315,0.0,0.0,98,0.34,,---,2.95,VWS V14.01,2013-09-02 12:16:00,
2013-09-02 08:21:00,66.7,66.2,29.32,NW,315,0.0,0.0,98,0.50,,---,3.11,VWS V14.01,2013-09-02 12:21:00,
2013-09-02 08:26:00,66.6,66.0,29.35,NE,45,0.0,0.0,98,0.80,,---,3.41,VWS V14.01,2013-09-02 12:26:00,
2013-09-02 08:31:00,66.6,66.0,29.35,ENE,68,0.0,0.0,98,1.00,,---,3.61,VWS V14.01,2013-09-02 12:31:00,
2013-09-02 08:36:00,66.6,66.0,29.35,SSW,202,0.0,0.0,98,0.99,,---,3.65,VWS V14.01,2013-09-02 12:36:00,
2013-09-02 08:42:00,66.4,65.8,29.32,SW,225,0.0,0.0,98,1.08,,---,3.74,VWS V14.01,2013-09-02 12:42:00,
2013-09-02 08:47:00,66.4,65.8,29.32,SSW,202,0.0,0.0,98,1.08,,---,3.74,VWS V14.01,2013-09-02 12:47:00,
2013-09-02 08:52:00,66.4,65.8,29.32,WSW,248,0.0,0.0,98,1.00,,---,3.74,VWS V14.01,2013-09-02 12:52:00,
2013-09-02 08:58:00,66.4,65.8,29.32,WSW,248,0.0,0.0,98,1.00,,---,3.78,VWS V14.01,2013-09-02 12:58:00,
2013-09-02 09:04:00,66.6,66.0,29.32,SSW,202,0.0,0.0,98,0.96,,---,3.78,VWS V14.01,2013-09-02 13:04:00,
2013-09-02 09:09:00,66.6,66.0,29.32,NE,45,0.0,0.0,98,0.91,,---,3.78,VWS V14.01,2013-09-02 13:09:00,
2013-09-02 09:14:00,66.6,66.0,29.32,NE,45,0.0,0.0,98,0.83,,---,3.78,VWS V14.01,2013-09-02 13:14:00,
2013-09-02 09:19:00,66.6,66.0,29.32,NE,45,0.0,0.0,98,0.75,,---,3.78,VWS V14.01,2013-09-02 13:19:00,
2013-09-02 09:25:00,66.6,66.0,29.32,NE,45,0.0,0.0,98,0.50,,---,3.78,VWS V14.01,2013-09-02 13:25:00,
2013-09-02 09:30:00,66.6,66.0,29.32,NE,45,0.0,0.0,98,0.25,,---,3.78,VWS V14.01,2013-09-02 13:30:00,
2013-09-02 09:35:00,66.6,66.0,29.32,NE,45,0.0,0.0,98,0.13,,---,3.78,VWS V14.01,2013-09-02 13:35:00,
2013-09-02 09:41:00,66.6,66.0,29.32,NE,45,0.0,0.0,98,0.08,,---,3.78,VWS V14.01,2013-09-02 13:41:00,
2013-09-02 09:47:00,66.7,66.2,29.32,NE,45,0.0,0.0,98,0.04,,---,3.78,VWS V14.01,2013-09-02 13:47:00,
2013-09-02 09:53:00,66.9,66.3,29.35,NE,45,0.0,0.0,98,0.04,,---,3.78,VWS V14.01,2013-09-02 13:53:00,
2013-09-02 09:58:00,67.1,66.5,29.35,NE,45,0.0,0.0,98,0.00,,---,3.78,VWS V14.01,2013-09-02 13:58:00,
2013-09-02 10:04:00,67.1,66.5,29.35,NE,45,0.0,0.0,98,0.00,,---,3.78,VWS V14.01,2013-09-02 14:04:00,
2013-09-02 10:09:00,67.1,66.5,29.35,NE,45,0.0,0.0,98,0.00,,---,3.78,VWS V14.01,2013-09-02 14:09:00,
2013-09-02 10:15:00,67.3,66.7,29.35,NE,45,0.0,0.0,98,0.00,,---,3.78,VWS V14.01,2013-09-02 14:15:00,
2013-09-02 10:21:00,67.3,66.7,29.35,NNE,22,0.0,0.0,98,0.00,,---,3.78,VWS V14.01,2013-09-02 14:21:00,
2013-09-02 10:26:00,67.5,66.9,29.35,NNE,22,0.0,0.0,98,0.00,,---,3.78,VWS V14.01,2013-09-02 14:26:00,
2013-09-02 10:32:00,67.5,66.9,29.35,NNE,22,0.0,0.0,98,0.00,,---,3.78,VWS V14.01,2013-09-02 14:32:00,
2013-09-02 10:37:00,67.8,67.2,29.32,NNE,22,0.0,0.0,98,0.00,,---,3.78,VWS V14.01,2013-09-02 14:37:00,
2013-09-02 10:43:00,68.0,67.4,29.32,ENE,68,0.0,0.0,98,0.00,,---,3.78,VWS V14.01,2013-09-02 14:43:00,
2013-09-02 10:48:00,68.0,67.4,29.32,SW,225,0.0,0.0,98,0.00,,---,3.78,VWS V14.01,2013-09-02 14:48:00,
2013-09-02 10:53:00,68.0,67.4,29.32,ESE,112,0.0,0.0,98,0.00,,---,3.78,VWS V14.01,2013-09-02 14:53:00,
2013-09-02 10:58:00,68.2,67.6,29.32,ENE,68,0.0,0.0,98,0.00,,---,3.78,VWS V14.01,2013-09-02 14:58:00,
2013-09-02 11:04:00,68.2,67.6,29.32,ENE,68,0.0,0.0,98,0.00,,---,3.78,VWS V14.01,2013-09-02 15:04:00,
2013-09-02 11:11:00,68.2,67.6,29.32,NNE,22,0.0,0.0,98,0.00,,---,3.78,VWS V14.01,2013-09-02 15:11:00,
2013-09-02 11:17:00,68.5,68.0,29.32,NNE,22,0.0,0.0,98,0.00,,---,3.78,VWS V14.01,2013-09-02 15:17:00,
2013-09-02 11:22:00,68.7,68.1,29.32,ENE,68,0.0,0.0,98,0.00,,---,3.78,VWS V14.01,2013-09-02 15:22:00,
2013-09-02 11:28:00,68.7,68.1,29.32,ENE,68,0.0,0.0,98,0.00,,---,3.78,VWS V14.01,2013-09-02 15:28:00,
2013-09-02 11:33:00,68.7,68.1,29.32,ENE,68,0.0,0.0,98,0.00,,---,3.78,VWS V14.01,2013-09-02 15:33:00,
2013-09-02 11:39:00,68.5,68.0,29.32,NE,45,0.0,0.0,98,0.00,,---,3.78,VWS V14.01,2013-09-02 15:39:00,
2013-09-02 11:44:00,68.5,68.0,29.32,East,90,0.0,0.0,98,0.00,,---,3.78,VWS V14.01,2013-09-02 15:44:00,
2013-09-02 11:49:00,68.2,67.6,29.32,East,90,0.0,0.0,98,0.00,,---,3.78,VWS V14.01,2013-09-02 15:49:00,
2013-09-02 11:54:00,68.2,67.6,29.32,East,90,0.0,0.0,98,0.00,,---,3.78,VWS V14.01,2013-09-02 15:54:00,
2013-09-02 12:01:00,68.0,67.1,29.32,East,90,0.0,0.0,97,0.00,,---,3.78,VWS V14.01,2013-09-02 16:01:00,
2013-09-02 12:07:00,67.8,67.2,29.32,NNE,22,0.0,0.0,98,0.00,,---,3.78,VWS V14.01,2013-09-02 16:07:00,
2013-09-02 12:13:00,67.8,67.2,29.32,NNE,22,0.0,0.0,98,0.00,,---,3.78,VWS V14.01,2013-09-02 16:13:00,
2013-09-02 12:18:00,68.0,67.4,29.32,NNE,22,0.0,0.0,98,0.00,,---,3.78,VWS V14.01,2013-09-02 16:18:00,
2013-09-02 12:24:00,68.2,67.6,29.32,NNE,22,0.0,0.0,98,0.00,,---,3.78,VWS V14.01,2013-09-02 16:24:00,
2013-09-02 12:29:00,68.4,67.8,29.32,NNE,22,0.0,0.0,98,0.00,,---,3.78,VWS V14.01,2013-09-02 16:29:00,
2013-09-02 12:36:00,68.5,68.0,29.32,ENE,68,0.0,0.0,98,0.00,,---,3.78,VWS V14.01,2013-09-02 16:36:00,
2013-09-02 12:42:00,68.5,68.0,29.32,South,180,0.0,0.0,98,0.00,,---,3.78,VWS V14.01,2013-09-02 16:42:00,
2013-09-02 12:48:00,68.5,68.0,29.32,SE,135,0.0,0.0,98,0.00,,---,3.78,VWS V14.01,2013-09-02 16:48:00,
2013-09-02 12:53:00,68.7,68.1,29.32,ENE,68,0.0,0.0,98,0.00,,---,3.78,VWS V14.01,2013-09-02 16:53:00,
2013-09-02 12:59:00,68.7,68.1,29.32,NNE,22,0.0,0.0,98,0.00,,---,3.78,VWS V14.01,2013-09-02 16:59:00,
2013-09-02 13:04:00,68.7,68.1,29.32,NNE,22,0.0,0.0,98,0.00,,---,3.78,VWS V14.01,2013-09-02 17:04:00,
2013-09-02 13:10:00,68.7,68.1,29.32,NNE,22,0.0,0.0,98,0.00,,---,3.78,VWS V14.01,2013-09-02 17:10:00,
2013-09-02 13:15:00,68.5,67.7,29.32,NNE,22,0.0,0.0,97,0.00,,---,3.78,VWS V14.01,2013-09-02 17:15:00,
2013-09-02 13:21:00,68.4,67.5,29.32,NNE,22,0.0,0.0,97,0.00,,---,3.78,VWS V14.01,2013-09-02 17:21:00,
2013-09-02 13:27:00,68.5,67.7,29.32,NNE,22,0.0,0.0,97,0.00,,---,3.78,VWS V14.01,2013-09-02 17:27:00,
2013-09-02 13:32:00,68.7,67.8,29.32,North,0,0.0,0.0,97,0.00,,---,3.78,VWS V14.01,2013-09-02 17:32:00,
2013-09-02 13:38:00,68.7,67.8,29.29,North,0,0.0,0.0,97,0.00,,---,3.78,VWS V14.01,2013-09-02 17:38:00,
2013-09-02 13:43:00,68.9,68.0,29.29,East,90,0.0,0.0,97,0.00,,---,3.78,VWS V14.01,2013-09-02 17:43:00,
2013-09-02 13:49:00,69.1,68.2,29.29,ESE,112,0.0,0.0,97,0.00,,---,3.78,VWS V14.01,2013-09-02 17:49:00,
2013-09-02 13:55:00,69.3,68.4,29.29,ENE,68,0.0,0.0,97,0.00,,---,3.78,VWS V14.01,2013-09-02 17:55:00,
2013-09-02 14:00:00,69.1,68.2,29.29,ENE,68,0.0,0.0,97,0.00,,---,3.78,VWS V14.01,2013-09-02 18:00:00,
2013-09-02 14:06:00,69.1,68.2,29.29,ENE,68,0.0,0.0,97,0.00,,---,3.78,VWS V14.01,2013-09-02 18:06:00,
2013-09-02 14:12:00,69.1,68.2,29.29,ENE,68,0.0,0.0,97,0.00,,---,3.78,VWS V14.01,2013-09-02 18:12:00,
2013-09-02 14:17:00,69.1,68.2,29.29,ENE,68,0.0,0.0,97,0.00,,---,3.78,VWS V14.01,2013-09-02 18:17:00,
2013-09-02 14:24:00,68.7,67.5,29.29,ENE,68,0.0,0.0,96,0.00,,---,3.78,VWS V14.01,2013-09-02 18:24:00,
2013-09-02 14:30:00,68.5,67.1,29.29,ENE,68,0.0,0.0,95,0.00,,---,3.78,VWS V14.01,2013-09-02 18:30:00,
2013-09-02 14:36:00,68.5,67.4,29.29,ENE,68,0.0,0.0,96,0.00,,---,3.78,VWS V14.01,2013-09-02 18:36:00,
2013-09-02 14:41:00,68.4,67.2,29.29,ENE,68,0.0,0.0,96,0.00,,---,3.78,VWS V14.01,2013-09-02 18:41:00,
2013-09-02 14:47:00,68.7,67.5,29.29,ENE,68,0.0,0.0,96,0.00,,---,3.78,VWS V14.01,2013-09-02 18:47:00,
2013-09-02 14:53:00,68.9,68.0,29.29,North,0,0.0,0.0,97,0.00,,---,3.78,VWS V14.01,2013-09-02 18:53:00,
2013-09-02 14:58:00,68.9,68.0,29.29,North,0,0.0,0.0,97,0.00,,---,3.78,VWS V14.01,2013-09-02 18:58:00,
2013-09-02 15:03:00,68.9,67.7,29.29,North,0,0.0,0.0,96,0.00,,---,3.78,VWS V14.01,2013-09-02 19:03:00,
2013-09-02 15:09:00,68.9,67.7,29.29,North,0,0.0,0.0,96,0.00,,---,3.78,VWS V14.01,2013-09-02 19:09:00,
2013-09-02 15:15:00,69.1,67.9,29.29,ESE,112,0.0,0.0,96,0.00,,---,3.78,VWS V14.01,2013-09-02 19:15:00,
2013-09-02 15:20:00,69.1,67.9,29.29,East,90,0.0,0.0,96,0.00,,---,3.78,VWS V14.01,2013-09-02 19:20:00,
2013-09-02 15:26:00,68.9,67.7,29.29,East,90,0.0,0.0,96,0.00,,---,3.78,VWS V14.01,2013-09-02 19:26:00,
2013-09-02 15:31:00,68.9,67.7,29.29,East,90,0.0,0.0,96,0.00,,---,3.78,VWS V14.01,2013-09-02 19:31:00,
2013-09-02 15:37:00,68.9,67.7,29.29,East,90,0.0,0.0,96,0.00,,---,3.78,VWS V14.01,2013-09-02 19:37:00,
2013-09-02 15:44:00,68.7,67.5,29.29,ESE,112,0.0,0.0,96,0.00,,---,3.78,VWS V14.01,2013-09-02 19:44:00,
2013-09-02 15:50:00,68.7,67.5,29.29,ENE,68,0.0,0.0,96,0.00,,---,3.78,VWS V14.01,2013-09-02 19:50:00,
2013-09-02 15:55:00,68.5,67.4,29.29,ENE,68,0.0,0.0,96,0.00,,---,3.78,VWS V14.01,2013-09-02 19:55:00,
2013-09-02 16:01:00,68.5,67.4,29.29,ENE,68,0.0,0.0,96,0.00,,---,3.78,VWS V14.01,2013-09-02 20:01:00,
2013-09-02 16:06:00,68.4,67.2,29.29,ENE,68,0.0,0.0,96,0.00,,---,3.78,VWS V14.01,2013-09-02 20:06:00,
2013-09-02 16:11:00,68.5,67.4,29.26,ENE,68,0.0,0.0,96,0.00,,---,3.78,VWS V14.01,2013-09-02 20:11:00,
2013-09-02 16:16:00,68.4,67.2,29.26,NE,45,0.0,0.0,96,0.00,,---,3.78,VWS V14.01,2013-09-02 20:16:00,
2013-09-02 16:22:00,68.2,67.0,29.26,SSW,202,0.0,0.0,96,0.00,,---,3.78,VWS V14.01,2013-09-02 20:22:00,
2013-09-02 16:28:00,68.4,67.2,29.26,SW,225,0.0,0.0,96,0.00,,---,3.78,VWS V14.01,2013-09-02 20:28:00,
2013-09-02 16:35:00,68.2,67.0,29.26,SW,225,0.0,0.0,96,0.00,,---,3.78,VWS V14.01,2013-09-02 20:35:00,
2013-09-02 16:40:00,68.2,67.0,29.26,SW,225,0.0,0.0,96,0.00,,---,3.78,VWS V14.01,2013-09-02 20:40:00,
2013-09-02 16:45:00,68.4,67.2,29.26,SW,225,0.0,0.0,96,0.00,,---,3.78,VWS V14.01,2013-09-02 20:45:00,
2013-09-02 16:50:00,68.4,67.2,29.26,SW,225,0.0,0.0,96,0.00,,---,3.78,VWS V14.01,2013-09-02 20:50:00,
2013-09-02 16:55:00,68.4,67.2,29.26,SW,225,0.0,0.0,96,0.00,,---,3.78,VWS V14.01,2013-09-02 20:55:00,
2013-09-02 17:00:00,68.2,67.0,29.26,SW,225,0.0,0.0,96,0.00,,---,3.78,VWS V14.01,2013-09-02 21:00:00,
2013-09-02 17:06:00,68.2,66.7,29.26,NNW,338,0.0,0.0,95,0.00,,---,3.78,VWS V14.01,2013-09-02 21:06:00,
2013-09-02 17:11:00,68.0,66.5,29.26,NNW,338,0.0,0.0,95,0.00,,---,3.78,VWS V14.01,2013-09-02 21:11:00,
2013-09-02 17:16:00,68.0,66.5,29.26,NE,45,0.0,0.0,95,0.00,,---,3.78,VWS V14.01,2013-09-02 21:16:00,
2013-09-02 17:21:00,68.0,66.8,29.26,NE,45,0.0,0.0,96,0.04,,---,3.82,VWS V14.01,2013-09-02 21:21:00,
2013-09-02 17:27:00,68.0,66.8,29.26,NE,45,0.0,0.0,96,0.04,,---,3.82,VWS V14.01,2013-09-02 21:27:00,
2013-09-02 17:32:00,68.0,66.8,29.26,NE,45,0.0,0.0,96,0.04,,---,3.82,VWS V14.01,2013-09-02 21:32:00,
2013-09-02 17:37:00,68.0,66.8,29.26,NE,45,0.0,0.0,96,0.04,,---,3.82,VWS V14.01,2013-09-02 21:37:00,
2013-09-02 17:42:00,68.0,66.8,29.26,NE,45,0.0,0.0,96,0.04,,---,3.82,VWS V14.01,2013-09-02 21:42:00,
2013-09-02 17:48:00,68.0,66.8,29.26,NE,45,0.0,0.0,96,0.04,,---,3.82,VWS V14.01,2013-09-02 21:48:00,
2013-09-02 17:53:00,68.0,66.8,29.26,NE,45,0.0,0.0,96,0.04,,---,3.82,VWS V14.01,2013-09-02 21:53:00,
2013-09-02 17:58:00,68.0,66.8,29.26,NE,45,0.0,0.0,96,0.04,,---,3.82,VWS V14.01,2013-09-02 21:58:00,
2013-09-02 18:03:00,67.8,66.9,29.26,East,90,0.0,0.0,97,0.04,,---,3.82,VWS V14.01,2013-09-02 22:03:00,
2013-09-02 18:08:00,67.8,66.9,29.26,East,90,0.0,0.0,97,0.04,,---,3.82,VWS V14.01,2013-09-02 22:08:00,
2013-09-02 18:13:00,67.6,66.8,29.26,ENE,68,0.0,0.0,97,0.04,,---,3.82,VWS V14.01,2013-09-02 22:13:00,
2013-09-02 18:19:00,67.5,66.6,29.26,ENE,68,0.0,0.0,97,0.04,,---,3.82,VWS V14.01,2013-09-02 22:19:00,
2013-09-02 18:24:00,67.5,66.6,29.26,ENE,68,0.0,0.0,97,0.00,,---,3.82,VWS V14.01,2013-09-02 22:24:00,
2013-09-02 18:29:00,67.5,66.6,29.26,ENE,68,0.0,0.0,97,0.00,,---,3.82,VWS V14.01,2013-09-02 22:29:00,
2013-09-02 18:35:00,67.3,66.4,29.26,ENE,68,0.0,0.0,97,0.00,,---,3.82,VWS V14.01,2013-09-02 22:35:00,
2013-09-02 18:40:00,67.3,66.4,29.26,ENE,68,0.0,0.0,97,0.00,,---,3.82,VWS V14.01,2013-09-02 22:40:00,
2013-09-02 18:46:00,67.1,66.2,29.26,ENE,68,0.0,0.0,97,0.00,,---,3.82,VWS V14.01,2013-09-02 22:46:00,
2013-09-02 18:52:00,67.1,66.2,29.26,ENE,68,0.0,0.0,97,0.00,,---,3.82,VWS V14.01,2013-09-02 22:52:00,
2013-09-02 18:57:00,67.1,66.2,29.26,NNW,338,0.0,0.0,97,0.00,,---,3.82,VWS V14.01,2013-09-02 22:57:00,
2013-09-02 19:03:00,66.9,66.0,29.26,WNW,292,0.0,0.0,97,0.00,,---,3.82,VWS V14.01,2013-09-02 23:03:00,
2013-09-02 19:08:00,66.9,66.0,29.26,WNW,292,0.0,0.0,97,0.00,,---,3.82,VWS V14.01,2013-09-02 23:08:00,
2013-09-02 19:15:00,66.7,65.9,29.26,WNW,292,0.0,0.0,97,0.00,,---,3.82,VWS V14.01,2013-09-02 23:15:00,
2013-09-02 19:20:00,66.7,65.9,29.26,WNW,292,0.0,0.0,97,0.00,,---,3.82,VWS V14.01,2013-09-02 23:20:00,
2013-09-02 19:26:00,66.6,65.7,29.23,WNW,292,0.0,0.0,97,0.00,,---,3.82,VWS V14.01,2013-09-02 23:26:00,
2013-09-02 19:32:00,66.6,66.0,29.23,WNW,292,0.0,0.0,98,0.00,,---,3.82,VWS V14.01,2013-09-02 23:32:00,
2013-09-02 19:37:00,66.6,66.0,29.23,WNW,292,0.0,0.0,98,0.04,,---,3.86,VWS V14.01,2013-09-02 23:37:00,
2013-09-02 19:43:00,66.6,66.0,29.23,WNW,292,0.0,0.0,98,0.04,,---,3.86,VWS V14.01,2013-09-02 23:43:00,
2013-09-02 19:49:00,66.6,66.0,29.23,WNW,292,0.0,0.0,98,0.04,,---,3.86,VWS V14.01,2013-09-02 23:49:00,
2013-09-02 19:54:00,66.6,66.0,29.26,WNW,292,0.0,0.0,98,0.04,,---,3.86,VWS V14.01,2013-09-02 23:54:00,
2013-09-02 20:00:00,66.6,66.0,29.26,WNW,292,0.0,0.0,98,0.04,,---,3.86,VWS V14.01,2013-09-03 00:00:00,
2013-09-02 20:06:00,66.6,66.0,29.26,WNW,292,0.0,0.0,98,0.04,,---,3.86,VWS V14.01,2013-09-03 00:06:00,
2013-09-02 20:12:00,66.6,66.0,29.26,WNW,292,0.0,0.0,98,0.04,,---,3.86,VWS V14.01,2013-09-03 00:12:00,
2013-09-02 20:17:00,66.4,65.8,29.26,WNW,292,0.0,0.0,98,0.04,,---,3.86,VWS V14.01,2013-09-03 00:17:00,
2013-09-02 20:23:00,66.4,65.8,29.26,WNW,292,0.0,0.0,98,0.04,,---,3.86,VWS V14.01,2013-09-03 00:23:00,
2013-09-02 20:28:00,66.4,65.8,29.26,WNW,292,0.0,0.0,98,0.04,,---,3.86,VWS V14.01,2013-09-03 00:28:00,
2013-09-02 20:34:00,66.4,65.8,29.26,WSW,248,0.0,0.0,98,0.04,,---,3.86,VWS V14.01,2013-09-03 00:34:00,
2013-09-02 20:39:00,66.4,65.8,29.26,WSW,248,0.0,0.0,98,0.00,,---,3.86,VWS V14.01,2013-09-03 00:39:00,
2013-09-02 20:45:00,66.4,65.8,29.26,WSW,248,0.0,0.0,98,0.00,,---,3.86,VWS V14.01,2013-09-03 00:45:00,
2013-09-02 20:50:00,66.4,65.8,29.26,WSW,248,0.0,0.0,98,0.00,,---,3.86,VWS V14.01,2013-09-03 00:50:00,
2013-09-02 20:56:00,66.4,65.8,29.23,WSW,248,0.0,0.0,98,0.00,,---,3.86,VWS V14.01,2013-09-03 00:56:00,
2013-09-02 21:02:00,66.4,65.8,29.23,WSW,248,0.0,0.0,98,0.00,,---,3.86,VWS V14.01,2013-09-03 01:02:00,
2013-09-02 21:07:00,66.4,65.8,29.23,WSW,248,0.0,0.0,98,0.00,,---,3.86,VWS V14.01,2013-09-03 01:07:00,
2013-09-02 21:13:00,66.4,65.8,29.23,WSW,248,0.0,0.0,98,0.00,,---,3.86,VWS V14.01,2013-09-03 01:13:00,
2013-09-02 21:19:00,66.4,65.8,29.23,WSW,248,0.0,0.0,98,0.00,,---,3.86,VWS V14.01,2013-09-03 01:19:00,
2013-09-02 21:24:00,66.4,65.8,29.23,WSW,248,0.0,0.0,98,0.00,,---,3.86,VWS V14.01,2013-09-03 01:24:00,
2013-09-02 21:30:00,66.4,65.8,29.23,WSW,248,0.0,0.0,98,0.00,,---,3.86,VWS V14.01,2013-09-03 01:30:00,
2013-09-02 21:35:00,66.4,65.8,29.23,WSW,248,0.0,0.0,98,0.00,,---,3.86,VWS V14.01,2013-09-03 01:35:00,
2013-09-02 21:41:00,66.4,65.8,29.23,WSW,248,0.0,0.0,98,0.00,,---,3.86,VWS V14.01,2013-09-03 01:41:00,
2013-09-02 21:46:00,66.4,65.8,29.23,WSW,248,0.0,0.0,98,0.00,,---,3.86,VWS V14.01,2013-09-03 01:46:00,
2013-09-02 21:52:00,66.4,65.8,29.23,WSW,248,0.0,0.0,98,0.00,,---,3.86,VWS V14.01,2013-09-03 01:52:00,
2013-09-02 21:57:00,66.4,65.8,29.23,WSW,248,0.0,0.0,98,0.00,,---,3.86,VWS V14.01,2013-09-03 01:57:00,
2013-09-02 22:02:00,66.4,65.8,29.23,WSW,248,0.0,0.0,98,0.00,,---,3.86,VWS V14.01,2013-09-03 02:02:00,
2013-09-02 22:07:00,66.4,65.8,29.23,WSW,248,0.0,0.0,98,0.00,,---,3.86,VWS V14.01,2013-09-03 02:07:00,
2013-09-02 22:13:00,66.4,65.8,29.23,WSW,248,0.0,0.0,98,0.00,,---,3.86,VWS V14.01,2013-09-03 02:13:00,
2013-09-02 22:19:00,66.4,65.8,29.23,WSW,248,0.0,0.0,98,0.00,,---,3.86,VWS V14.01,2013-09-03 02:19:00,
2013-09-02 22:25:00,66.2,65.6,29.26,WSW,248,0.0,0.0,98,0.00,,---,3.86,VWS V14.01,2013-09-03 02:25:00,
2013-09-02 22:30:00,66.4,65.8,29.26,WSW,248,0.0,0.0,98,0.00,,---,3.86,VWS V14.01,2013-09-03 02:30:00,
2013-09-02 22:36:00,66.2,65.6,29.26,WSW,248,0.0,0.0,98,0.00,,---,3.86,VWS V14.01,2013-09-03 02:36:00,
2013-09-02 22:41:00,66.2,65.6,29.23,WSW,248,0.0,0.0,98,0.00,,---,3.86,VWS V14.01,2013-09-03 02:41:00,
2013-09-02 22:47:00,66.2,65.6,29.23,East,90,0.0,0.0,98,0.00,,---,3.86,VWS V14.01,2013-09-03 02:47:00,
2013-09-02 22:52:00,66.2,65.6,29.23,East,90,0.0,0.0,98,0.00,,---,3.86,VWS V14.01,2013-09-03 02:52:00,
2013-09-02 22:58:00,66.2,65.6,29.23,ESE,112,0.0,0.0,98,0.00,,---,3.86,VWS V14.01,2013-09-03 02:58:00,
2013-09-02 23:03:00,66.2,65.6,29.23,ESE,112,0.0,0.0,98,0.00,,---,3.86,VWS V14.01,2013-09-03 03:03:00,
2013-09-02 23:09:00,66.2,65.6,29.23,ESE,112,0.0,0.0,98,0.00,,---,3.86,VWS V14.01,2013-09-03 03:09:00,
2013-09-02 23:15:00,66.2,65.6,29.23,ESE,112,0.0,0.0,98,0.00,,---,3.86,VWS V14.01,2013-09-03 03:15:00,
2013-09-02 23:20:00,66.2,65.6,29.23,ESE,112,0.0,0.0,98,0.00,,---,3.86,VWS V14.01,2013-09-03 03:20:00,
2013-09-02 23:26:00,66.2,65.6,29.23,ESE,112,0.0,0.0,98,0.00,,---,3.86,VWS V14.01,2013-09-03 03:26:00,
2013-09-02 23:32:00,66.2,65.6,29.23,ESE,112,0.0,0.0,98,0.00,,---,3.86,VWS V14.01,2013-09-03 03:32:00,
2013-09-02 23:37:00,66.2,65.6,29.23,ESE,112,0.0,0.0,98,0.00,,---,3.86,VWS V14.01,2013-09-03 03:37:00,
2013-09-02 23:42:00,66.2,65.6,29.23,ESE,112,0.0,0.0,98,0.00,,---,3.86,VWS V14.01,2013-09-03 03:42:00,
2013-09-02 23:48:00,66.2,65.6,29.23,ESE,112,0.0,0.0,98,0.00,,---,3.86,VWS V14.01,2013-09-03 03:48:00,
2013-09-02 23:54:00,66.2,65.6,29.23,ESE,112,0.0,0.0,98,0.00,,---,3.86,VWS V14.01,2013-09-03 03:54:00,
2013-09-02 23:59:00,66.2,65.6,29.23,ESE,112,0.0,0.0,98,0.00,,---,3.86,VWS V14.01,2013-09-03 03:59:00,